Time;durP1;ratioP1;P1;durP2;ratioP2;P2;SDS_P1;SDS_P2;PMS_P1;PMS_P2;Temp;Humidity;BMP_temperature;BMP_pressure;BME280_temperature;BME280_humidity;BME280_pressure;Samples;Min_cycle;Max_cycle;Signal;HPM_P1;HPM_P2
2022/08/09 00:00:45;;;;;;;3.50;2.20;;;;;;;15.24;79.34;97426.48;108498;1268;22550;-76
2022/08/09 00:03:16;;;;;;;4.20;2.20;;;;;;;15.29;79.24;97429.12;108462;1267;22526;-76
2022/08/09 00:05:47;;;;;;;4.30;2.30;;;;;;;15.33;78.99;97429.77;108501;1268;23797;-76
2022/08/09 00:08:18;;;;;;;5.40;2.20;;;;;;;15.35;78.92;97433.81;108400;1268;23435;-76
2022/08/09 00:10:50;;;;;;;3.80;2.20;;;;;;;15.33;78.96;97430.40;108462;1268;22529;-76
2022/08/09 00:13:21;;;;;;;3.20;2.30;;;;;;;15.37;79.07;97426.15;108539;1268;24467;-76
2022/08/09 00:15:55;;;;;;;4.30;2.20;;;;;;;15.45;79.29;97424.73;108541;1268;22536;-76
2022/08/09 00:18:26;;;;;;;5.00;2.40;;;;;;;15.54;79.36;97425.11;108422;1268;32864;-76
2022/08/09 00:20:57;;;;;;;5.20;2.20;;;;;;;15.55;79.14;97421.88;108462;1267;22616;-76
2022/08/09 00:23:28;;;;;;;2.80;2.10;;;;;;;15.56;79.48;97425.92;108467;1267;22696;-76
2022/08/09 00:25:59;;;;;;;4.30;2.20;;;;;;;15.57;79.55;97426.16;108441;1268;22652;-76
2022/08/09 00:28:30;;;;;;;5.60;2.30;;;;;;;15.60;79.55;97426.09;108443;1268;30475;-76
2022/08/09 00:31:03;;;;;;;5.00;2.10;;;;;;;15.58;79.59;97430.27;108425;1267;24208;-76
2022/08/09 00:33:34;;;;;;;3.10;2.10;;;;;;;15.62;79.73;97429.17;108534;1267;24012;-76
2022/08/09 00:36:06;;;;;;;5.00;2.30;;;;;;;15.58;79.71;97428.14;108453;1268;22532;-76
2022/08/09 00:38:38;;;;;;;4.80;2.10;;;;;;;15.42;79.76;97431.35;108520;1268;32260;-76
2022/08/09 00:41:09;;;;;;;4.00;2.20;;;;;;;15.37;80.25;97428.28;108529;1267;22553;-76
2022/08/09 00:43:41;;;;;;;3.90;1.90;;;;;;;15.41;80.52;97424.15;108475;1267;22613;-76
2022/08/09 00:46:13;;;;;;;5.00;2.20;;;;;;;15.42;80.27;97426.60;108553;1267;22683;-76
2022/08/09 00:48:44;;;;;;;5.70;2.20;;;;;;;15.35;80.45;97429.27;108427;1267;37318;-76
2022/08/09 00:51:17;;;;;;;5.70;2.60;;;;;;;15.36;80.58;97424.55;108534;1267;24243;-76
2022/08/09 00:53:49;;;;;;;3.80;2.40;;;;;;;15.27;80.43;97424.50;108551;1267;25254;-76
2022/08/09 00:56:20;;;;;;;5.10;2.60;;;;;;;15.25;80.54;97424.96;108527;1267;22542;-76
2022/08/09 00:58:51;;;;;;;5.10;2.30;;;;;;;15.25;80.71;97427.05;108381;1267;35501;-76
2022/08/09 01:01:27;;;;;;;5.30;2.60;;;;;;;15.33;80.91;97426.55;108533;1266;22583;-76
2022/08/09 01:04:05;;;;;;;3.40;2.30;;;;;;;15.31;80.68;97424.11;108396;1267;22601;-76
2022/08/09 01:06:43;;;;;;;3.80;2.40;;;;;;;15.35;80.73;97425.37;108572;1266;22512;-76
2022/08/09 01:09:23;;;;;;;6.50;2.10;;;;;;;15.39;80.54;97421.63;108493;1267;27233;-76
2022/08/09 01:11:59;;;;;;;4.00;2.20;;;;;;;15.43;80.55;97421.27;108571;1267;24221;-76
2022/08/09 01:14:35;;;;;;;4.70;2.10;;;;;;;15.52;80.64;97426.36;108484;1268;22545;-76
2022/08/09 01:17:15;;;;;;;6.30;2.50;;;;;;;15.54;80.66;97423.38;108550;1267;23043;-76
2022/08/09 01:19:52;;;;;;;5.00;2.50;;;;;;;15.53;80.52;97424.37;108481;1268;28650;-76
2022/08/09 01:23:03;;;;;;;4.00;2.10;;;;;;;15.56;80.66;97424.10;108354;1268;23333;-76
2022/08/09 01:25:52;;;;;;;5.70;2.20;;;;;;;15.53;80.42;97421.91;108444;1268;24221;-76
2022/08/09 01:28:24;;;;;;;6.20;2.30;;;;;;;15.54;80.43;97423.23;108502;1267;30216;-76
2022/08/09 01:31:01;;;;;;;5.70;2.80;;;;;;;15.58;80.60;97424.55;108557;1268;22637;-76
2022/08/09 01:33:37;;;;;;;3.80;2.20;;;;;;;15.63;80.60;97427.17;108572;1268;22555;-76
2022/08/09 01:36:13;;;;;;;5.90;2.40;;;;;;;15.67;80.75;97428.55;108549;1266;24230;-76
2022/08/09 01:38:47;;;;;;;6.10;2.60;;;;;;;15.69;80.60;97431.54;108383;1267;38525;-76
2022/08/09 01:41:22;;;;;;;5.40;2.90;;;;;;;15.68;80.54;97431.96;108552;1268;23481;-76
2022/08/09 01:43:56;;;;;;;5.80;2.70;;;;;;;15.70;80.57;97432.21;108424;1267;22539;-76
2022/08/09 01:46:31;;;;;;;6.50;2.60;;;;;;;15.72;80.65;97432.33;108517;1267;22471;-76
2022/08/09 01:49:06;;;;;;;4.70;2.60;;;;;;;15.68;80.35;97434.38;108432;1267;41710;-76
2022/08/09 01:51:40;;;;;;;4.50;2.70;;;;;;;15.67;80.53;97434.82;108570;1267;22548;-76
2022/08/09 01:54:12;;;;;;;7.10;3.00;;;;;;;15.61;80.27;97435.91;108539;1268;25501;-76
2022/08/09 01:56:46;;;;;;;4.30;2.60;;;;;;;15.54;80.35;97433.75;108563;1268;22593;-76
2022/08/09 01:59:23;;;;;;;4.30;2.90;;;;;;;15.58;80.75;97432.52;108450;1267;26654;-77
2022/08/09 02:01:57;;;;;;;4.40;2.60;;;;;;;15.62;80.76;97432.33;108542;1267;24240;-76
2022/08/09 02:04:29;;;;;;;6.00;3.10;;;;;;;15.65;80.82;97433.15;108526;1268;22507;-76
2022/08/09 02:07:10;;;;;;;5.30;2.70;;;;;;;15.67;80.86;97435.09;108527;1268;22565;-76
2022/08/09 02:09:46;;;;;;;5.10;2.60;;;;;;;15.69;80.96;97433.12;108482;1268;31876;-76
2022/08/09 02:12:21;;;;;;;5.20;2.60;;;;;;;15.70;81.00;97436.69;108537;1267;22526;-76
2022/08/09 02:14:54;;;;;;;6.70;2.80;;;;;;;15.70;81.16;97437.71;108566;1268;23182;-76
2022/08/09 02:17:32;;;;;;;4.80;2.20;;;;;;;15.70;81.21;97439.63;108369;1268;22622;-76
2022/08/09 02:20:04;;;;;;;3.30;2.20;;;;;;;15.72;81.28;97438.69;108487;1267;25380;-76
2022/08/09 02:22:42;;;;;;;4.10;2.40;;;;;;;15.73;81.09;97439.74;108529;1268;24225;-76
2022/08/09 02:25:18;;;;;;;6.20;2.90;;;;;;;15.74;80.99;97441.55;108543;1268;22547;-76
2022/08/09 02:27:54;;;;;;;4.50;2.70;;;;;;;15.73;80.93;97440.81;108419;1268;35420;-76
2022/08/09 02:30:26;;;;;;;3.90;2.60;;;;;;;15.69;80.99;97439.27;108493;1267;22542;-76
2022/08/09 02:32:59;;;;;;;6.20;2.40;;;;;;;15.68;81.10;97439.30;108545;1267;22532;-76
2022/08/09 02:35:31;;;;;;;8.10;2.70;;;;;;;15.66;81.09;97439.42;108500;1268;22566;-76
2022/08/09 02:38:05;;;;;;;4.30;2.80;;;;;;;15.59;80.87;97440.53;108428;1268;39283;-76
2022/08/09 02:40:38;;;;;;;5.60;2.50;;;;;;;15.51;80.94;97442.84;108482;1267;25366;-76
2022/08/09 02:43:12;;;;;;;5.00;2.70;;;;;;;15.54;81.54;97440.48;108562;1267;22683;-76
2022/08/09 02:45:46;;;;;;;7.30;2.70;;;;;;;15.56;81.60;97437.68;108457;1267;25408;-76
2022/08/09 02:48:19;;;;;;;4.10;2.60;;;;;;;15.55;81.67;97434.39;108491;1267;28759;-76
2022/08/09 02:50:55;;;;;;;3.80;2.80;;;;;;;15.51;81.88;97438.23;108548;1267;22610;-76
2022/08/09 02:53:30;;;;;;;4.90;2.90;;;;;;;15.50;81.97;97441.25;108545;1268;24230;-76
2022/08/09 02:56:04;;;;;;;7.50;3.40;;;;;;;15.53;82.14;97440.66;108467;1267;22556;-76
2022/08/09 02:58:36;;;;;;;6.40;3.50;;;;;;;15.55;81.95;97442.02;108442;1267;36686;-76
2022/08/09 03:01:08;;;;;;;5.60;3.20;;;;;;;15.57;81.91;97441.88;108543;1268;23871;-76
2022/08/09 03:03:41;;;;;;;7.30;3.30;;;;;;;15.61;81.97;97443.39;108539;1268;22521;-76
2022/08/09 03:06:14;;;;;;;6.40;3.30;;;;;;;15.62;81.77;97445.42;108493;1267;22580;-76
2022/08/09 03:08:48;;;;;;;5.60;3.40;;;;;;;15.59;81.57;97446.73;108477;1267;24139;-76
2022/08/09 03:11:21;;;;;;;6.80;3.60;;;;;;;15.56;81.71;97449.60;108545;1268;22463;-76
2022/08/09 03:13:54;;;;;;;4.40;3.10;;;;;;;15.56;81.79;97451.42;108332;1268;22464;-76
2022/08/09 03:16:26;;;;;;;11.70;4.50;;;;;;;15.59;81.99;97451.43;108527;1267;22609;-76
2022/08/09 03:18:58;;;;;;;5.80;3.40;;;;;;;15.57;81.96;97451.02;108458;1267;30405;-76
2022/08/09 03:21:30;;;;;;;4.40;3.20;;;;;;;15.54;82.23;97451.29;108464;1267;23074;-76
2022/08/09 03:24:02;;;;;;;8.00;3.50;;;;;;;15.50;82.38;97455.30;108451;1267;22518;-77
2022/08/09 03:26:35;;;;;;;4.40;2.90;;;;;;;15.51;82.68;97458.92;108554;1268;22549;-76
2022/08/09 03:29:07;;;;;;;5.50;3.20;;;;;;;15.52;82.70;97462.08;108448;1267;28476;-76
2022/08/09 03:31:39;;;;;;;4.60;3.50;;;;;;;15.53;82.88;97465.20;108551;1268;22552;-76
2022/08/09 03:34:11;;;;;;;4.90;3.60;;;;;;;15.52;82.84;97465.32;108516;1267;25238;-76
2022/08/09 03:36:42;;;;;;;6.00;3.60;;;;;;;15.45;82.78;97463.89;108537;1265;22549;-76
2022/08/09 03:39:13;;;;;;;6.30;3.60;;;;;;;15.47;83.10;97463.88;108437;1267;39193;-76
2022/08/09 03:41:44;;;;;;;7.70;3.80;;;;;;;15.46;82.99;97464.48;108546;1267;22636;-76
2022/08/09 03:44:15;;;;;;;8.90;3.10;;;;;;;15.39;83.26;97464.32;108568;1268;22537;-76
2022/08/09 03:46:46;;;;;;;7.30;2.80;;;;;;;15.30;83.61;97465.77;108549;1268;22534;-76
2022/08/09 03:49:18;;;;;;;8.90;3.20;;;;;;;15.30;83.81;97460.85;108292;1271;31295;-76
2022/08/09 03:51:54;;;;;;;5.10;3.50;;;;;;;15.36;83.94;97463.20;108551;1268;22543;-76
2022/08/09 03:54:27;;;;;;;6.90;3.30;;;;;;;15.39;83.98;97460.58;108519;1268;22556;-76
2022/08/09 03:57:02;;;;;;;5.70;3.50;;;;;;;15.38;83.93;97458.23;108424;1268;24263;-76
2022/08/09 03:59:34;;;;;;;5.40;3.50;;;;;;;15.41;84.03;97455.20;108274;1268;31994;-76
2022/08/09 04:02:06;;;;;;;6.60;3.80;;;;;;;15.48;84.12;97455.16;108514;1268;22531;-76
2022/08/09 04:04:38;;;;;;;7.10;3.90;;;;;;;15.51;83.90;97451.66;108443;1267;22641;-76
2022/08/09 04:07:09;;;;;;;7.10;4.20;;;;;;;15.51;84.01;97450.31;107510;1268;1339519;-76
2022/08/09 04:09:40;;;;;;;6.50;4.20;;;;;;;15.50;84.00;97455.48;108377;1268;25997;-76
2022/08/09 04:12:34;;;;;;;4.60;3.40;;;;;;;15.45;84.26;97454.71;108501;1268;24306;-76
2022/08/09 04:15:08;;;;;;;7.50;4.10;;;;;;;15.38;84.59;97452.89;108413;1268;22523;-76
2022/08/09 04:17:40;;;;;;;6.30;4.20;;;;;;;15.35;84.71;97456.09;108506;1268;22648;-76
2022/08/09 04:20:13;;;;;;;10.00;4.50;;;;;;;15.33;84.84;97454.02;108511;1267;22532;-76
2022/08/09 04:22:45;;;;;;;6.50;4.10;;;;;;;15.31;84.82;97453.67;108474;1268;22733;-76
2022/08/09 04:25:16;;;;;;;10.50;4.00;;;;;;;15.34;84.93;97454.92;108535;1268;22533;-76
2022/08/09 04:27:47;;;;;;;11.50;4.70;;;;;;;15.39;85.02;97456.61;108447;1268;22673;-76
2022/08/09 04:30:21;;;;;;;7.80;4.30;;;;;;;15.47;85.01;97457.42;108480;1268;22510;-76
2022/08/09 04:32:53;;;;;;;6.80;4.30;;;;;;;15.53;84.80;97456.53;108514;1268;22479;-76
2022/08/09 04:35:24;;;;;;;8.10;4.30;;;;;;;15.62;84.80;97458.45;108420;1268;22526;-76
2022/08/09 04:37:55;;;;;;;7.00;4.10;;;;;;;15.72;84.33;97455.58;108401;1268;35583;-76
2022/08/09 04:40:47;;;;;;;7.60;4.10;;;;;;;15.85;84.23;97461.92;108430;1268;22533;-76
2022/08/09 04:43:20;;;;;;;5.80;4.10;;;;;;;16.10;84.13;97459.71;108497;1268;22536;-76
2022/08/09 04:45:52;;;;;;;8.10;4.60;;;;;;;16.35;83.81;97463.56;108347;1268;25244;-76
2022/08/09 04:48:23;;;;;;;9.20;4.00;;;;;;;16.61;82.98;97466.21;108336;1268;34862;-76
2022/08/09 04:50:55;;;;;;;7.90;4.00;;;;;;;16.66;81.80;97469.40;108496;1268;22694;-76
2022/08/09 04:53:26;;;;;;;7.80;4.00;;;;;;;16.75;81.61;97470.00;108474;1268;25353;-76
2022/08/09 04:55:57;;;;;;;6.60;3.80;;;;;;;16.84;81.21;97472.66;108505;1268;25403;-76
2022/08/09 04:58:29;;;;;;;8.00;4.00;;;;;;;17.52;81.70;97470.48;108373;1267;39826;-76
2022/08/09 05:01:01;;;;;;;5.80;3.70;;;;;;;18.01;79.40;97468.30;108504;1268;22534;-76
2022/08/09 05:03:33;;;;;;;6.20;3.80;;;;;;;18.47;78.06;97468.67;108491;1268;25429;-76
2022/08/09 05:06:05;;;;;;;7.40;3.70;;;;;;;19.30;76.80;97471.63;108431;1268;22551;-76
2022/08/09 05:08:37;;;;;;;7.90;4.10;;;;;;;20.64;75.25;97474.09;108452;1268;30060;-76
2022/08/09 05:11:08;;;;;;;6.50;3.20;;;;;;;22.32;71.75;97470.96;108509;1268;22674;-76
2022/08/09 05:13:41;;;;;;;6.60;3.70;;;;;;;22.46;65.63;97472.78;108495;1268;22469;-76
2022/08/09 05:16:12;;;;;;;5.20;3.30;;;;;;;21.54;64.57;97481.39;108509;1267;23864;-76
2022/08/09 05:18:44;;;;;;;4.60;3.30;;;;;;;21.26;65.39;97479.48;108429;1268;32479;-76
2022/08/09 05:21:15;;;;;;;5.30;3.10;;;;;;;22.29;67.03;97483.22;108420;1268;22678;-76
2022/08/09 05:23:47;;;;;;;8.20;3.50;;;;;;;22.89;62.86;97476.65;108437;1268;22549;-76
2022/08/09 05:26:18;;;;;;;5.80;3.30;;;;;;;22.20;61.03;97483.15;108511;1268;23065;-76
2022/08/09 05:28:50;;;;;;;6.10;3.60;;;;;;;21.32;61.30;97483.27;108332;1268;31154;-76
2022/08/09 05:31:21;;;;;;;8.30;3.70;;;;;;;20.67;62.12;97485.09;108492;1268;23793;-76
2022/08/09 05:33:52;;;;;;;4.90;2.70;;;;;;;20.26;62.89;97482.40;108505;1268;25402;-76
2022/08/09 05:36:23;;;;;;;6.10;3.40;;;;;;;20.06;63.07;97484.92;108521;1268;22888;-76
2022/08/09 05:38:55;;;;;;;5.80;3.10;;;;;;;19.80;62.89;97484.45;108432;1267;23417;-76
2022/08/09 05:41:27;;;;;;;5.70;3.00;;;;;;;19.50;62.44;97479.85;108498;1268;24221;-76
2022/08/09 05:43:59;;;;;;;5.90;2.90;;;;;;;19.43;62.87;97477.68;108472;1268;22662;-76
2022/08/09 05:46:30;;;;;;;5.60;2.90;;;;;;;19.57;63.43;97480.06;108514;1268;23249;-76
2022/08/09 05:49:01;;;;;;;7.40;2.50;;;;;;;19.78;62.91;97477.64;108336;1268;38281;-76
2022/08/09 05:51:32;;;;;;;6.10;2.80;;;;;;;20.25;61.47;97483.30;108503;1267;24078;-76
2022/08/09 05:54:07;;;;;;;6.70;3.00;;;;;;;20.22;60.67;97482.48;108472;1268;23754;-76
2022/08/09 05:56:38;;;;;;;5.80;2.50;;;;;;;19.96;60.92;97484.02;108531;1268;22637;-76
2022/08/09 05:59:10;;;;;;;5.30;2.50;;;;;;;19.83;61.56;97485.37;108287;1270;25672;-76
2022/08/09 06:01:41;;;;;;;3.20;2.30;;;;;;;19.75;61.10;97484.64;108514;1266;22672;-76
2022/08/09 06:04:12;;;;;;;4.40;2.70;;;;;;;19.52;61.42;97482.64;108435;1267;22461;-76
2022/08/09 06:06:43;;;;;;;5.50;2.70;;;;;;;19.63;62.68;97484.09;108492;1268;25316;-76
2022/08/09 06:09:15;;;;;;;3.50;2.40;;;;;;;19.77;62.36;97482.88;108421;1268;46176;-76
2022/08/09 06:11:46;;;;;;;4.70;2.40;;;;;;;19.53;62.03;97481.53;108452;1268;22465;-76
2022/08/09 06:14:17;;;;;;;4.10;2.60;;;;;;;19.25;62.03;97481.52;108497;1267;22549;-76
2022/08/09 06:16:49;;;;;;;5.00;2.80;;;;;;;19.25;62.52;97482.29;108417;1268;22545;-76
2022/08/09 06:19:20;;;;;;;9.20;2.80;;;;;;;19.09;62.45;97484.17;108406;1268;25188;-76
2022/08/09 06:21:51;;;;;;;5.70;2.50;;;;;;;18.89;62.69;97484.61;108487;1268;22547;-76
2022/08/09 06:24:23;;;;;;;4.30;2.50;;;;;;;18.76;63.04;97485.36;108442;1267;23762;-76
2022/08/09 06:26:54;;;;;;;5.40;2.50;;;;;;;18.73;62.96;97487.20;108513;1268;22639;-76
2022/08/09 06:29:25;;;;;;;6.60;2.80;;;;;;;18.82;63.50;97484.39;108436;1268;26496;-76
2022/08/09 06:31:56;;;;;;;7.00;2.70;;;;;;;19.00;63.57;97486.90;108511;1268;22560;-76
2022/08/09 06:34:27;;;;;;;5.50;2.90;;;;;;;19.13;63.51;97483.48;108488;1266;22554;-76
2022/08/09 06:36:58;;;;;;;4.30;2.50;;;;;;;19.04;63.38;97487.33;108499;1268;25398;-76
2022/08/09 06:39:31;;;;;;;4.90;2.50;;;;;;;19.21;63.88;97486.27;108427;1268;30025;-76
2022/08/09 06:42:02;;;;;;;5.40;2.90;;;;;;;19.41;63.04;97481.34;108395;1268;25057;-76
2022/08/09 06:44:34;;;;;;;4.70;2.90;;;;;;;19.42;62.58;97485.17;108537;1267;22568;-76
2022/08/09 06:47:05;;;;;;;5.90;2.80;;;;;;;19.33;62.64;97485.67;108498;1267;22482;-76
2022/08/09 06:49:36;;;;;;;6.10;3.10;;;;;;;19.67;63.51;97487.95;108352;1267;34038;-76
2022/08/09 06:52:09;;;;;;;4.60;2.80;;;;;;;20.36;63.12;97489.55;108424;1268;22650;-77
2022/08/09 06:54:41;;;;;;;4.20;2.50;;;;;;;20.54;61.17;97491.80;108479;1268;22699;-76
2022/08/09 06:57:12;;;;;;;5.40;2.60;;;;;;;20.34;60.78;97490.10;108500;1267;22534;-76
2022/08/09 06:59:45;;;;;;;7.00;2.70;;;;;;;20.32;60.91;97489.05;108375;1268;44236;-76
2022/08/09 07:02:16;;;;;;;5.80;3.00;;;;;;;20.51;61.31;97494.73;108427;1268;23790;-76
2022/08/09 07:04:48;;;;;;;3.20;2.50;;;;;;;20.62;59.88;97491.92;108418;1268;22769;-76
2022/08/09 07:07:19;;;;;;;4.90;2.40;;;;;;;20.32;58.93;97494.98;108408;1267;22567;-77
2022/08/09 07:09:51;;;;;;;5.30;2.50;;;;;;;20.38;60.59;97495.16;108316;1268;28143;-76
2022/08/09 07:12:22;;;;;;;4.00;2.20;;;;;;;20.88;60.60;97499.13;108480;1268;22839;-76
2022/08/09 07:14:53;;;;;;;5.30;2.60;;;;;;;21.16;59.23;97498.73;108428;1268;23729;-77
2022/08/09 07:17:25;;;;;;;4.20;2.40;;;;;;;21.26;58.56;97502.05;108488;1268;25354;-76
2022/08/09 07:19:56;;;;;;;4.20;2.80;;;;;;;21.43;58.75;97509.81;108411;1268;25299;-76
2022/08/09 07:22:30;;;;;;;4.40;2.30;;;;;;;21.85;58.32;97511.02;108504;1268;22536;-77
2022/08/09 07:25:04;;;;;;;4.60;2.00;;;;;;;22.83;58.87;97509.03;108472;1268;22544;-76
2022/08/09 07:27:35;;;;;;;4.30;2.10;;;;;;;24.11;57.99;97514.14;108391;1268;25409;-77
2022/08/09 07:30:08;;;;;;;6.60;2.30;;;;;;;25.96;56.33;97514.05;108389;1268;29966;-76
2022/08/09 07:32:40;;;;;;;6.40;2.20;;;;;;;27.06;49.64;97519.23;108400;1268;25522;-77
2022/08/09 07:35:13;;;;;;;8.20;1.90;;;;;;;26.64;49.68;97518.00;108496;1268;22690;-77
2022/08/09 07:37:45;;;;;;;3.90;1.80;;;;;;;26.73;50.38;97519.11;108347;1268;29743;-77
2022/08/09 07:40:19;;;;;;;4.70;2.20;;;;;;;27.52;49.69;97520.28;108493;1268;22553;-77
2022/08/09 07:42:52;;;;;;;5.80;1.90;;;;;;;27.47;48.34;97528.28;108433;1267;24212;-77
2022/08/09 07:45:27;;;;;;;5.60;2.30;;;;;;;26.95;47.92;97528.05;108513;1268;25394;-77
2022/08/09 07:48:00;;;;;;;4.20;2.30;;;;;;;26.32;48.51;97530.67;108436;1268;29889;-76
2022/08/09 07:50:31;;;;;;;3.80;1.90;;;;;;;25.73;46.93;97533.99;108481;1268;22658;-77
2022/08/09 07:53:02;;;;;;;4.20;2.10;;;;;;;24.51;46.92;97534.80;108519;1268;22646;-77
2022/08/09 07:55:34;;;;;;;3.40;2.10;;;;;;;23.88;48.70;97536.05;108386;1268;22596;-77
2022/08/09 07:58:05;;;;;;;2.50;1.60;;;;;;;23.60;48.50;97536.41;108448;1268;29930;-77
2022/08/09 08:00:37;;;;;;;3.70;1.90;;;;;;;23.19;49.97;97538.52;108513;1268;23576;-77
2022/08/09 08:03:08;;;;;;;5.00;2.00;;;;;;;23.05;49.83;97536.45;108506;1268;22602;-77
2022/08/09 08:05:40;;;;;;;4.20;2.20;;;;;;;23.11;50.80;97533.77;108480;1268;22655;-77
2022/08/09 08:08:11;;;;;;;4.60;2.00;;;;;;;23.01;50.95;97544.52;108326;1268;38515;-77
2022/08/09 08:10:43;;;;;;;3.50;1.80;;;;;;;23.15;51.33;97541.41;108486;1268;22928;-77
2022/08/09 08:13:16;;;;;;;3.00;1.80;;;;;;;23.71;51.45;97546.98;108394;1268;22556;-77
2022/08/09 08:15:47;;;;;;;2.70;1.70;;;;;;;24.26;50.64;97546.20;108531;1267;22754;-76
2022/08/09 08:18:21;;;;;;;4.20;1.70;;;;;;;24.36;49.60;97546.27;108445;1268;24553;-76
2022/08/09 08:20:52;;;;;;;5.50;1.70;;;;;;;24.37;49.70;97548.23;108411;1268;22544;-76
2022/08/09 08:23:24;;;;;;;3.80;2.00;;;;;;;24.56;50.07;97550.16;108423;1268;22918;-76
2022/08/09 08:25:55;;;;;;;7.10;1.90;;;;;;;24.78;49.45;97552.06;108520;1268;22513;-76
2022/08/09 08:28:26;;;;;;;5.10;2.00;;;;;;;24.57;47.30;97552.58;108418;1268;38689;-77
2022/08/09 08:30:57;;;;;;;5.40;2.10;;;;;;;24.53;48.59;97552.55;108433;1268;24327;-77
2022/08/09 08:33:29;;;;;;;5.70;1.90;;;;;;;24.91;48.76;97554.88;108502;1268;22533;-77
2022/08/09 08:36:00;;;;;;;3.50;1.60;;;;;;;25.27;48.66;97555.42;108450;1268;22904;-77
2022/08/09 08:38:32;;;;;;;4.30;2.10;;;;;;;25.79;48.63;97552.60;108432;1267;29325;-76
2022/08/09 08:41:03;;;;;;;4.60;2.10;;;;;;;26.12;47.89;97561.00;108387;1268;22489;-76
2022/08/09 08:43:35;;;;;;;4.00;1.90;;;;;;;26.82;47.49;97562.31;108404;1268;24262;-76
2022/08/09 08:46:09;;;;;;;5.10;2.20;;;;;;;27.03;46.50;97563.75;108537;1268;22755;-77
2022/08/09 08:48:42;;;;;;;3.00;1.70;;;;;;;26.96;46.33;97561.96;108442;1268;22710;-77
2022/08/09 08:51:13;;;;;;;3.90;1.90;;;;;;;26.63;46.42;97567.34;108479;1268;23838;-77
2022/08/09 08:53:45;;;;;;;5.90;2.30;;;;;;;26.01;46.47;97563.34;108514;1268;22565;-77
2022/08/09 08:56:17;;;;;;;4.40;1.90;;;;;;;25.47;47.17;97564.65;108499;1268;25222;-77
2022/08/09 08:58:49;;;;;;;3.80;2.00;;;;;;;25.05;47.64;97568.58;108430;1268;30350;-76
2022/08/09 09:01:23;;;;;;;3.60;2.10;;;;;;;24.64;48.12;97566.88;108390;1268;22704;-76
2022/08/09 09:03:54;;;;;;;5.80;1.90;;;;;;;24.41;49.14;97572.72;108509;1268;22535;-77
2022/08/09 09:06:26;;;;;;;6.90;2.10;;;;;;;24.23;49.60;97570.67;108479;1268;22588;-77
2022/08/09 09:08:58;;;;;;;7.40;2.60;;;;;;;24.09;49.89;97573.26;108361;1268;31300;-77
2022/08/09 09:11:30;;;;;;;4.20;2.50;;;;;;;23.80;49.88;97570.07;108471;1268;22472;-77
2022/08/09 09:14:09;;;;;;;4.20;2.10;;;;;;;23.83;51.13;97570.72;108431;1268;23713;-77
2022/08/09 09:16:40;;;;;;;5.00;2.50;;;;;;;24.92;51.32;97571.40;108494;1268;22905;-77
2022/08/09 09:19:12;;;;;;;5.30;2.40;;;;;;;25.11;50.54;97569.20;108404;1268;39698;-76
2022/08/09 09:21:58;;;;;;;7.10;2.70;;;;;;;25.04;50.34;97574.38;108428;1268;24270;-77
2022/08/09 09:24:32;;;;;;;6.50;2.40;;;;;;;25.20;50.07;97571.14;108401;1268;23839;-77
2022/08/09 09:27:05;;;;;;;3.70;2.50;;;;;;;25.12;49.90;97574.26;108533;1267;23894;-77
2022/08/09 09:29:38;;;;;;;6.90;2.50;;;;;;;24.75;48.85;97571.80;108400;1268;48421;-77
2022/08/09 09:32:10;;;;;;;5.20;2.80;;;;;;;24.67;50.68;97569.35;108502;1267;22564;-77
2022/08/09 09:34:43;;;;;;;6.20;2.80;;;;;;;24.96;50.14;97572.52;108388;1268;22580;-77
2022/08/09 09:37:30;;;;;;;4.20;2.70;;;;;;;24.68;49.71;97574.02;108489;1267;24216;-77
2022/08/09 09:40:02;;;;;;;6.00;2.40;;;;;;;24.89;51.41;97575.91;108428;1268;39583;-77
2022/08/09 09:42:33;;;;;;;6.40;2.60;;;;;;;24.99;51.04;97576.54;108411;1268;22537;-77
2022/08/09 09:45:08;;;;;;;6.30;2.80;;;;;;;24.90;50.76;97578.48;108428;1267;22657;-77
2022/08/09 09:47:47;;;;;;;3.10;2.00;;;;;;;24.86;51.43;97573.50;108437;1265;24298;-77
2022/08/09 09:50:21;;;;;;;4.20;2.10;;;;;;;24.96;50.79;97569.80;108498;1268;22638;-77
2022/08/09 09:52:53;;;;;;;4.90;2.70;;;;;;;24.74;51.42;97567.13;108537;1268;24236;-77
2022/08/09 09:55:25;;;;;;;5.40;2.10;;;;;;;24.91;52.13;97566.49;108406;1267;23851;-77
2022/08/09 09:58:01;;;;;;;5.00;2.70;;;;;;;25.01;51.31;97565.14;108463;1268;28449;-76
2022/08/09 10:00:33;;;;;;;5.40;2.30;;;;;;;24.59;50.48;97569.13;108490;1268;23876;-77
2022/08/09 10:03:04;;;;;;;3.80;2.00;;;;;;;24.50;51.83;97568.89;108421;1267;23781;-77
2022/08/09 10:05:35;;;;;;;6.20;2.10;;;;;;;24.69;51.88;97568.86;108476;1268;22904;-76
2022/08/09 10:08:08;;;;;;;4.40;1.90;;;;;;;24.87;51.51;97567.02;108402;1268;47826;-76
2022/08/09 10:10:39;;;;;;;4.50;1.80;;;;;;;25.05;51.06;97569.36;108534;1268;23734;-76
2022/08/09 10:13:10;;;;;;;4.90;2.20;;;;;;;25.16;51.72;97568.49;108378;1268;24285;-76
2022/08/09 10:15:51;;;;;;;3.70;2.00;;;;;;;25.33;51.00;97571.38;108519;1268;24315;-77
2022/08/09 10:18:22;;;;;;;2.60;1.80;;;;;;;25.14;50.49;97568.97;108447;1268;32228;-76
2022/08/09 10:20:53;;;;;;;5.10;1.70;;;;;;;25.26;50.72;97562.05;108511;1268;22536;-76
2022/08/09 10:23:25;;;;;;;2.40;1.70;;;;;;;25.11;48.48;97563.91;108536;1268;22524;-77
2022/08/09 10:26:00;;;;;;;3.20;2.10;;;;;;;23.97;47.77;97570.95;108539;1268;22595;-77
2022/08/09 10:28:33;;;;;;;4.80;1.80;;;;;;;23.37;49.50;97567.48;108413;1267;38710;-77
2022/08/09 10:31:04;;;;;;;3.30;1.80;;;;;;;23.70;51.43;97569.30;108425;1267;25359;-77
2022/08/09 10:33:36;;;;;;;4.30;1.90;;;;;;;23.97;49.47;97568.83;108512;1268;23301;-77
2022/08/09 10:36:11;;;;;;;4.50;1.80;;;;;;;23.62;50.12;97564.89;108331;1268;25610;-77
2022/08/09 10:38:45;;;;;;;3.70;1.60;;;;;;;23.74;50.30;97565.11;108429;1268;37998;-77
2022/08/09 10:41:18;;;;;;;4.00;2.20;;;;;;;23.41;49.18;97564.27;108514;1268;22466;-77
2022/08/09 10:43:54;;;;;;;4.10;2.10;;;;;;;23.06;50.96;97559.36;108476;1267;23423;-77
2022/08/09 10:46:44;;;;;;;4.20;1.80;;;;;;;23.46;51.14;97558.50;108414;1268;23884;-77
2022/08/09 10:49:24;;;;;;;5.10;1.80;;;;;;;23.63;48.94;97559.72;108337;1268;30599;-77
2022/08/09 10:52:08;;;;;;;2.90;1.70;;;;;;;23.51;48.67;97559.11;108546;1268;22523;-77
2022/08/09 10:54:41;;;;;;;2.80;1.70;;;;;;;23.33;49.37;97557.45;108519;1268;22686;-77
2022/08/09 10:57:13;;;;;;;3.00;1.60;;;;;;;23.01;48.81;97553.55;108534;1268;22535;-77
2022/08/09 10:59:45;;;;;;;3.80;1.60;;;;;;;22.75;49.48;97560.76;108430;1265;23852;-77
2022/08/09 11:02:35;;;;;;;2.90;1.70;;;;;;;22.62;49.91;97557.58;108515;1268;22533;-77
2022/08/09 11:05:21;;;;;;;3.90;1.70;;;;;;;22.88;51.04;97556.98;108521;1268;22520;-76
2022/08/09 11:07:53;;;;;;;4.10;1.80;;;;;;;23.26;51.51;97557.54;108461;1268;26033;-77
2022/08/09 11:10:55;;;;;;;4.90;1.60;;;;;;;23.51;51.56;97554.94;108542;1267;22518;-77
2022/08/09 11:13:26;;;;;;;5.00;1.70;;;;;;;23.80;51.43;97555.63;108383;1268;22611;-77
2022/08/09 11:16:35;;;;;;;5.00;1.80;;;;;;;23.94;50.90;97553.19;108495;1268;22475;-77
2022/08/09 11:19:11;;;;;;;3.20;1.50;;;;;;;23.86;49.24;97554.17;108231;1268;35772;-77
2022/08/09 11:21:57;;;;;;;3.30;1.80;;;;;;;23.42;48.72;97555.27;108528;1266;24168;-77
2022/08/09 11:24:49;;;;;;;3.10;1.80;;;;;;;23.12;48.85;97552.52;108501;1268;22546;-78
2022/08/09 11:27:33;;;;;;;3.50;1.70;;;;;;;22.65;49.23;97550.65;108385;1267;25918;-77
2022/08/09 11:30:06;;;;;;;2.20;1.50;;;;;;;22.54;51.13;97546.98;108447;1268;25050;-77
2022/08/09 11:32:46;;;;;;;4.00;1.50;;;;;;;22.74;51.72;97544.48;108411;1268;22568;-77
2022/08/09 11:35:25;;;;;;;2.30;1.80;;;;;;;22.89;50.41;97540.39;108475;1268;22871;-77
2022/08/09 11:38:00;;;;;;;3.80;1.50;;;;;;;22.83;50.23;97541.27;108432;1268;30290;-77
2022/08/09 11:40:32;;;;;;;2.50;1.70;;;;;;;22.74;50.05;97538.95;108534;1268;22666;-78
2022/08/09 11:43:04;;;;;;;4.80;1.60;;;;;;;22.76;50.69;97538.70;108404;1268;22561;-77
2022/08/09 11:45:41;;;;;;;2.70;1.70;;;;;;;23.04;51.55;97535.63;108503;1268;22614;-77
2022/08/09 11:48:26;;;;;;;3.90;1.90;;;;;;;23.20;50.07;97536.45;108343;1268;32072;-77
2022/08/09 11:51:06;;;;;;;2.90;1.60;;;;;;;23.25;50.74;97535.53;108546;1268;23061;-77
2022/08/09 11:53:38;;;;;;;4.10;2.00;;;;;;;23.35;50.07;97530.05;108395;1267;23995;-77